Bastogne, Belgium
Current Conditions -  °F | °C
As of 3:20 PM on Tuesday 27 Jan 2015 (Local Time) from ELLX Reporting Station
Broken Clouds Broken Clouds  
Wind Chill: 28°   Ceiling: 3800
Heat Index: 36°   Visibility: 6mi
Dew Point: 36°   Wind: 10mph
Humidity: 100%   Direction: 270°W
Pressure: 30.21"   Gusts: NA
Location:  50°N, 5.72°E
Report Text: ELLX 271420Z 27009KT 9999 FEW010 SCT031 BKN038 02/02 Q1023 NOSIG
Loading
Personal Weather Stations






























Interactive Weather Map New forecast layout! Learn more

10-Day Weather Forecast

Advertisements
Track Severe Weather on mobile